sensor_id;sensor_type;location;lat;lon;timestamp;temperature;humidity
10512;DHT22;5304;48.604;2.096;2022-12-07T00:02:09;0.10;99.90
10512;DHT22;5304;48.604;2.096;2022-12-07T00:04:53;0.00;99.90
10512;DHT22;5304;48.604;2.096;2022-12-07T00:07:38;0.00;99.90
10512;DHT22;5304;48.604;2.096;2022-12-07T00:10:22;0.00;99.90
10512;DHT22;5304;48.604;2.096;2022-12-07T00:13:06;0.00;99.90
10512;DHT22;5304;48.604;2.096;2022-12-07T00:15:51;0.00;99.90
10512;DHT22;5304;48.604;2.096;2022-12-07T00:18:35;-0.10;99.90
10512;DHT22;5304;48.604;2.096;2022-12-07T00:21:23;-0.10;99.90
10512;DHT22;5304;48.604;2.096;2022-12-07T00:24:09;0.00;99.90
10512;DHT22;5304;48.604;2.096;2022-12-07T00:26:54;0.00;99.90
10512;DHT22;5304;48.604;2.096;2022-12-07T00:29:39;0.10;99.90
10512;DHT22;5304;48.604;2.096;2022-12-07T00:32:23;0.00;99.90
10512;DHT22;5304;48.604;2.096;2022-12-07T00:35:08;0.00;99.90
10512;DHT22;5304;48.604;2.096;2022-12-07T00:37:52;-0.10;99.90
10512;DHT22;5304;48.604;2.096;2022-12-07T00:40:37;-0.10;99.90
10512;DHT22;5304;48.604;2.096;2022-12-07T00:43:21;-0.20;99.90
10512;DHT22;5304;48.604;2.096;2022-12-07T00:46:06;-0.20;99.90
10512;DHT22;5304;48.604;2.096;2022-12-07T00:48:51;-0.20;99.90
10512;DHT22;5304;48.604;2.096;2022-12-07T00:51:36;-0.20;99.90
10512;DHT22;5304;48.604;2.096;2022-12-07T00:54:21;-0.30;99.90
10512;DHT22;5304;48.604;2.096;2022-12-07T00:57:05;-0.30;99.90
10512;DHT22;5304;48.604;2.096;2022-12-07T00:59:49;-0.30;99.90
10512;DHT22;5304;48.604;2.096;2022-12-07T01:02:34;-0.30;99.90
10512;DHT22;5304;48.604;2.096;2022-12-07T01:05:20;-0.40;99.90
10512;DHT22;5304;48.604;2.096;2022-12-07T01:08:05;-0.40;99.90
10512;DHT22;5304;48.604;2.096;2022-12-07T01:10:58;-0.40;99.90
10512;DHT22;5304;48.604;2.096;2022-12-07T01:13:43;-0.30;99.90
10512;DHT22;5304;48.604;2.096;2022-12-07T01:16:30;-0.20;99.90
10512;DHT22;5304;48.604;2.096;2022-12-07T01:19:15;-0.30;99.90
10512;DHT22;5304;48.604;2.096;2022-12-07T01:21:59;-0.40;99.90
10512;DHT22;5304;48.604;2.096;2022-12-07T01:24:44;-0.30;99.90
10512;DHT22;5304;48.604;2.096;2022-12-07T01:27:30;-0.30;99.90
10512;DHT22;5304;48.604;2.096;2022-12-07T01:30:15;-0.30;99.90
10512;DHT22;5304;48.604;2.096;2022-12-07T01:32:59;-0.30;99.90
10512;DHT22;5304;48.604;2.096;2022-12-07T01:35:43;-0.20;99.90
10512;DHT22;5304;48.604;2.096;2022-12-07T01:38:29;-0.20;99.90
10512;DHT22;5304;48.604;2.096;2022-12-07T01:41:14;-0.10;99.90
10512;DHT22;5304;48.604;2.096;2022-12-07T01:47:00;0.10;99.90
10512;DHT22;5304;48.604;2.096;2022-12-07T01:49:47;0.10;99.90
10512;DHT22;5304;48.604;2.096;2022-12-07T01:52:33;0.30;99.90
10512;DHT22;5304;48.604;2.096;2022-12-07T01:55:20;0.30;99.90
10512;DHT22;5304;48.604;2.096;2022-12-07T01:58:04;0.40;99.90
10512;DHT22;5304;48.604;2.096;2022-12-07T02:00:49;0.50;99.90
10512;DHT22;5304;48.604;2.096;2022-12-07T02:03:40;0.50;99.90
10512;DHT22;5304;48.604;2.096;2022-12-07T02:06:26;0.60;99.90
10512;DHT22;5304;48.604;2.096;2022-12-07T02:09:10;0.70;99.90
10512;DHT22;5304;48.604;2.096;2022-12-07T02:11:55;0.70;99.90
10512;DHT22;5304;48.604;2.096;2022-12-07T02:14:40;0.70;99.90
10512;DHT22;5304;48.604;2.096;2022-12-07T02:17:58;0.80;99.90
10512;DHT22;5304;48.604;2.096;2022-12-07T02:27:25;0.90;99.90
10512;DHT22;5304;48.604;2.096;2022-12-07T02:30:14;1.00;99.90
10512;DHT22;5304;48.604;2.096;2022-12-07T02:33:18;1.00;99.90
10512;DHT22;5304;48.604;2.096;2022-12-07T02:36:17;1.10;99.90
10512;DHT22;5304;48.604;2.096;2022-12-07T02:39:11;1.10;99.90
10512;DHT22;5304;48.604;2.096;2022-12-07T02:42:04;1.00;99.90
10512;DHT22;5304;48.604;2.096;2022-12-07T02:44:52;1.10;99.90
10512;DHT22;5304;48.604;2.096;2022-12-07T02:47:37;1.20;99.90
10512;DHT22;5304;48.604;2.096;2022-12-07T02:50:23;1.20;99.90
10512;DHT22;5304;48.604;2.096;2022-12-07T03:11:56;1.00;99.90
10512;DHT22;5304;48.604;2.096;2022-12-07T03:15:01;1.00;99.90
10512;DHT22;5304;48.604;2.096;2022-12-07T03:17:49;1.10;99.90
10512;DHT22;5304;48.604;2.096;2022-12-07T03:20:37;1.10;99.90
10512;DHT22;5304;48.604;2.096;2022-12-07T03:23:24;1.00;99.90
10512;DHT22;5304;48.604;2.096;2022-12-07T03:26:12;1.00;99.90
10512;DHT22;5304;48.604;2.096;2022-12-07T03:29:02;1.00;99.90
10512;DHT22;5304;48.604;2.096;2022-12-07T03:31:50;1.10;99.90
10512;DHT22;5304;48.604;2.096;2022-12-07T03:34:59;1.00;99.90
10512;DHT22;5304;48.604;2.096;2022-12-07T03:43:40;1.00;99.90
10512;DHT22;5304;48.604;2.096;2022-12-07T03:49:55;1.00;99.90
10512;DHT22;5304;48.604;2.096;2022-12-07T03:53:05;0.90;99.90
10512;DHT22;5304;48.604;2.096;2022-12-07T03:55:48;1.00;99.90
10512;DHT22;5304;48.604;2.096;2022-12-07T03:58:35;0.90;99.90
10512;DHT22;5304;48.604;2.096;2022-12-07T04:01:20;1.00;99.90
10512;DHT22;5304;48.604;2.096;2022-12-07T04:04:04;1.10;99.90
10512;DHT22;5304;48.604;2.096;2022-12-07T04:06:49;1.10;99.90
10512;DHT22;5304;48.604;2.096;2022-12-07T04:09:34;1.00;99.90
10512;DHT22;5304;48.604;2.096;2022-12-07T04:12:18;0.90;99.90
10512;DHT22;5304;48.604;2.096;2022-12-07T04:15:03;1.00;99.90
10512;DHT22;5304;48.604;2.096;2022-12-07T04:17:48;1.00;99.90
10512;DHT22;5304;48.604;2.096;2022-12-07T04:20:32;0.90;99.90
10512;DHT22;5304;48.604;2.096;2022-12-07T04:23:17;0.90;99.90
10512;DHT22;5304;48.604;2.096;2022-12-07T04:26:01;0.80;99.90
10512;DHT22;5304;48.604;2.096;2022-12-07T04:28:46;0.80;99.90
10512;DHT22;5304;48.604;2.096;2022-12-07T04:31:31;0.70;99.90
10512;DHT22;5304;48.604;2.096;2022-12-07T04:34:15;0.70;99.90
10512;DHT22;5304;48.604;2.096;2022-12-07T04:37:00;0.70;99.90
10512;DHT22;5304;48.604;2.096;2022-12-07T04:39:44;0.60;99.90
10512;DHT22;5304;48.604;2.096;2022-12-07T04:42:29;0.50;99.90
10512;DHT22;5304;48.604;2.096;2022-12-07T04:45:13;0.40;99.90
10512;DHT22;5304;48.604;2.096;2022-12-07T04:47:58;0.40;99.90
10512;DHT22;5304;48.604;2.096;2022-12-07T04:50:42;0.40;99.90
10512;DHT22;5304;48.604;2.096;2022-12-07T04:53:26;0.40;99.90
10512;DHT22;5304;48.604;2.096;2022-12-07T04:56:11;0.30;99.90
10512;DHT22;5304;48.604;2.096;2022-12-07T04:58:56;0.30;99.90
10512;DHT22;5304;48.604;2.096;2022-12-07T05:01:40;0.20;99.90
10512;DHT22;5304;48.604;2.096;2022-12-07T05:04:25;0.20;99.90
10512;DHT22;5304;48.604;2.096;2022-12-07T05:07:09;0.10;99.90
10512;DHT22;5304;48.604;2.096;2022-12-07T05:09:53;0.20;99.90
10512;DHT22;5304;48.604;2.096;2022-12-07T05:12:38;0.10;99.90
10512;DHT22;5304;48.604;2.096;2022-12-07T05:15:22;0.10;99.90
10512;DHT22;5304;48.604;2.096;2022-12-07T05:18:07;0.20;99.90
10512;DHT22;5304;48.604;2.096;2022-12-07T05:20:51;0.30;99.90
10512;DHT22;5304;48.604;2.096;2022-12-07T05:23:36;0.30;99.90
10512;DHT22;5304;48.604;2.096;2022-12-07T05:26:21;0.30;99.90
10512;DHT22;5304;48.604;2.096;2022-12-07T05:29:05;0.50;99.90
10512;DHT22;5304;48.604;2.096;2022-12-07T05:31:50;0.40;99.90
10512;DHT22;5304;48.604;2.096;2022-12-07T05:34:35;0.50;99.90
10512;DHT22;5304;48.604;2.096;2022-12-07T05:37:21;0.50;99.90
10512;DHT22;5304;48.604;2.096;2022-12-07T05:40:06;0.40;99.90
10512;DHT22;5304;48.604;2.096;2022-12-07T05:42:51;0.40;99.90
10512;DHT22;5304;48.604;2.096;2022-12-07T05:45:35;0.50;99.90
10512;DHT22;5304;48.604;2.096;2022-12-07T05:48:20;0.50;99.90
10512;DHT22;5304;48.604;2.096;2022-12-07T05:51:04;0.50;99.90
10512;DHT22;5304;48.604;2.096;2022-12-07T05:53:49;0.60;99.90
10512;DHT22;5304;48.604;2.096;2022-12-07T05:56:33;0.60;99.90
10512;DHT22;5304;48.604;2.096;2022-12-07T05:59:17;0.50;99.90
10512;DHT22;5304;48.604;2.096;2022-12-07T06:02:10;0.40;99.90
10512;DHT22;5304;48.604;2.096;2022-12-07T06:04:55;0.40;99.90
10512;DHT22;5304;48.604;2.096;2022-12-07T06:07:40;0.40;99.90
10512;DHT22;5304;48.604;2.096;2022-12-07T06:10:24;0.30;99.90
10512;DHT22;5304;48.604;2.096;2022-12-07T06:13:09;0.30;99.90
10512;DHT22;5304;48.604;2.096;2022-12-07T06:15:53;0.30;99.90
10512;DHT22;5304;48.604;2.096;2022-12-07T06:18:38;0.30;99.90
10512;DHT22;5304;48.604;2.096;2022-12-07T06:21:22;0.40;99.90
10512;DHT22;5304;48.604;2.096;2022-12-07T06:24:08;0.30;99.90
10512;DHT22;5304;48.604;2.096;2022-12-07T06:26:53;0.50;99.90
10512;DHT22;5304;48.604;2.096;2022-12-07T06:29:37;0.50;99.90
10512;DHT22;5304;48.604;2.096;2022-12-07T06:32:22;0.50;99.90
10512;DHT22;5304;48.604;2.096;2022-12-07T06:35:06;0.50;99.90
10512;DHT22;5304;48.604;2.096;2022-12-07T06:37:51;0.50;99.90
10512;DHT22;5304;48.604;2.096;2022-12-07T06:40:35;0.50;99.90
10512;DHT22;5304;48.604;2.096;2022-12-07T06:43:20;0.60;99.90
10512;DHT22;5304;48.604;2.096;2022-12-07T06:46:05;0.60;99.90
10512;DHT22;5304;48.604;2.096;2022-12-07T06:48:49;0.60;99.90
10512;DHT22;5304;48.604;2.096;2022-12-07T06:51:34;0.60;99.90
10512;DHT22;5304;48.604;2.096;2022-12-07T06:54:25;0.60;99.90
10512;DHT22;5304;48.604;2.096;2022-12-07T06:57:10;0.70;99.90
10512;DHT22;5304;48.604;2.096;2022-12-07T06:59:54;0.60;99.90
10512;DHT22;5304;48.604;2.096;2022-12-07T07:02:39;0.60;99.90
10512;DHT22;5304;48.604;2.096;2022-12-07T07:05:23;0.60;99.90
10512;DHT22;5304;48.604;2.096;2022-12-07T07:08:08;0.60;99.90
10512;DHT22;5304;48.604;2.096;2022-12-07T07:10:53;0.60;99.90
10512;DHT22;5304;48.604;2.096;2022-12-07T07:13:38;0.60;99.90
10512;DHT22;5304;48.604;2.096;2022-12-07T07:16:22;0.60;99.90
10512;DHT22;5304;48.604;2.096;2022-12-07T07:19:07;0.70;99.90
10512;DHT22;5304;48.604;2.096;2022-12-07T07:21:51;0.80;99.90
10512;DHT22;5304;48.604;2.096;2022-12-07T07:24:35;0.90;99.90
10512;DHT22;5304;48.604;2.096;2022-12-07T07:27:20;0.80;99.90
10512;DHT22;5304;48.604;2.096;2022-12-07T07:30:05;0.80;99.90
10512;DHT22;5304;48.604;2.096;2022-12-07T07:32:50;0.90;99.90
10512;DHT22;5304;48.604;2.096;2022-12-07T07:35:35;0.80;99.90
10512;DHT22;5304;48.604;2.096;2022-12-07T07:38:19;0.80;99.90
10512;DHT22;5304;48.604;2.096;2022-12-07T07:41:04;0.80;99.90
10512;DHT22;5304;48.604;2.096;2022-12-07T07:43:49;0.90;99.90
10512;DHT22;5304;48.604;2.096;2022-12-07T07:46:33;0.90;99.90
10512;DHT22;5304;48.604;2.096;2022-12-07T07:49:17;0.90;99.90
10512;DHT22;5304;48.604;2.096;2022-12-07T07:52:02;0.90;99.90
10512;DHT22;5304;48.604;2.096;2022-12-07T07:54:47;0.90;99.90
10512;DHT22;5304;48.604;2.096;2022-12-07T07:57:31;0.90;99.90
10512;DHT22;5304;48.604;2.096;2022-12-07T08:00:16;1.00;99.90
10512;DHT22;5304;48.604;2.096;2022-12-07T08:03:01;1.00;99.90
10512;DHT22;5304;48.604;2.096;2022-12-07T08:05:45;1.00;99.90
10512;DHT22;5304;48.604;2.096;2022-12-07T08:08:30;1.00;99.90
10512;DHT22;5304;48.604;2.096;2022-12-07T08:11:14;1.00;99.90
10512;DHT22;5304;48.604;2.096;2022-12-07T08:13:59;1.10;99.90
10512;DHT22;5304;48.604;2.096;2022-12-07T08:16:44;1.10;99.90
10512;DHT22;5304;48.604;2.096;2022-12-07T08:19:29;1.10;99.90
10512;DHT22;5304;48.604;2.096;2022-12-07T08:22:13;1.10;99.90
10512;DHT22;5304;48.604;2.096;2022-12-07T08:24:58;1.20;99.90
10512;DHT22;5304;48.604;2.096;2022-12-07T08:27:42;1.20;99.90
10512;DHT22;5304;48.604;2.096;2022-12-07T08:30:28;1.20;99.90
10512;DHT22;5304;48.604;2.096;2022-12-07T08:33:12;1.20;99.90
10512;DHT22;5304;48.604;2.096;2022-12-07T08:36:08;1.30;99.90
10512;DHT22;5304;48.604;2.096;2022-12-07T08:38:53;1.30;99.90
10512;DHT22;5304;48.604;2.096;2022-12-07T08:41:38;1.50;99.90
10512;DHT22;5304;48.604;2.096;2022-12-07T08:44:22;1.60;99.90
10512;DHT22;5304;48.604;2.096;2022-12-07T08:47:08;1.70;99.90
10512;DHT22;5304;48.604;2.096;2022-12-07T08:49:54;1.90;99.90
10512;DHT22;5304;48.604;2.096;2022-12-07T08:52:40;2.00;99.90
10512;DHT22;5304;48.604;2.096;2022-12-07T08:55:26;2.10;99.90
10512;DHT22;5304;48.604;2.096;2022-12-07T08:58:11;2.20;99.90
10512;DHT22;5304;48.604;2.096;2022-12-07T09:00:55;2.40;99.90
10512;DHT22;5304;48.604;2.096;2022-12-07T09:03:40;2.60;99.90
10512;DHT22;5304;48.604;2.096;2022-12-07T09:06:25;2.90;99.90
10512;DHT22;5304;48.604;2.096;2022-12-07T09:09:11;3.10;99.90
10512;DHT22;5304;48.604;2.096;2022-12-07T09:11:56;3.40;99.90
10512;DHT22;5304;48.604;2.096;2022-12-07T09:14:40;3.60;99.90
10512;DHT22;5304;48.604;2.096;2022-12-07T09:17:24;3.60;99.90
10512;DHT22;5304;48.604;2.096;2022-12-07T09:20:09;3.60;99.90
10512;DHT22;5304;48.604;2.096;2022-12-07T09:22:54;4.10;99.90
10512;DHT22;5304;48.604;2.096;2022-12-07T09:25:38;4.90;99.90
10512;DHT22;5304;48.604;2.096;2022-12-07T09:28:23;5.80;99.90
10512;DHT22;5304;48.604;2.096;2022-12-07T09:31:07;6.80;99.90
10512;DHT22;5304;48.604;2.096;2022-12-07T09:33:59;7.50;99.90
10512;DHT22;5304;48.604;2.096;2022-12-07T09:36:44;8.50;99.90
10512;DHT22;5304;48.604;2.096;2022-12-07T09:39:29;8.70;99.90
10512;DHT22;5304;48.604;2.096;2022-12-07T09:42:36;8.30;99.90
10512;DHT22;5304;48.604;2.096;2022-12-07T09:45:24;7.70;99.90
10512;DHT22;5304;48.604;2.096;2022-12-07T09:48:20;8.10;99.90
10512;DHT22;5304;48.604;2.096;2022-12-07T09:51:22;8.60;99.90
10512;DHT22;5304;48.604;2.096;2022-12-07T09:54:11;8.50;99.90
10512;DHT22;5304;48.604;2.096;2022-12-07T09:56:56;8.00;99.90
10512;DHT22;5304;48.604;2.096;2022-12-07T09:59:41;7.50;99.90
10512;DHT22;5304;48.604;2.096;2022-12-07T10:02:43;7.10;99.90
10512;DHT22;5304;48.604;2.096;2022-12-07T10:05:35;6.90;99.90
10512;DHT22;5304;48.604;2.096;2022-12-07T10:08:21;6.70;99.90
10512;DHT22;5304;48.604;2.096;2022-12-07T10:11:06;6.70;99.90
10512;DHT22;5304;48.604;2.096;2022-12-07T10:13:54;6.80;99.90
10512;DHT22;5304;48.604;2.096;2022-12-07T10:16:41;6.80;99.90
10512;DHT22;5304;48.604;2.096;2022-12-07T10:19:31;6.70;99.90
10512;DHT22;5304;48.604;2.096;2022-12-07T10:22:17;6.90;99.90
10512;DHT22;5304;48.604;2.096;2022-12-07T10:25:09;7.00;99.90
10512;DHT22;5304;48.604;2.096;2022-12-07T10:31:02;6.60;99.90
10512;DHT22;5304;48.604;2.096;2022-12-07T10:33:55;6.40;99.90
10512;DHT22;5304;48.604;2.096;2022-12-07T10:36:40;6.40;99.90
10512;DHT22;5304;48.604;2.096;2022-12-07T10:39:24;6.30;99.90
10512;DHT22;5304;48.604;2.096;2022-12-07T10:42:25;6.40;99.90
10512;DHT22;5304;48.604;2.096;2022-12-07T10:45:17;6.60;99.90
10512;DHT22;5304;48.604;2.096;2022-12-07T10:51:20;6.90;99.90
10512;DHT22;5304;48.604;2.096;2022-12-07T11:00:25;6.40;99.90
10512;DHT22;5304;48.604;2.096;2022-12-07T11:03:22;6.20;99.90
10512;DHT22;5304;48.604;2.096;2022-12-07T11:09:32;6.30;99.90
10512;DHT22;5304;48.604;2.096;2022-12-07T11:12:25;6.30;99.90
10512;DHT22;5304;48.604;2.096;2022-12-07T11:15:53;6.70;99.90
10512;DHT22;5304;48.604;2.096;2022-12-07T11:19:00;7.00;99.90
10512;DHT22;5304;48.604;2.096;2022-12-07T11:36:51;7.70;99.90
10512;DHT22;5304;48.604;2.096;2022-12-07T11:39:41;7.80;99.90
10512;DHT22;5304;48.604;2.096;2022-12-07T11:46:10;8.00;99.90
10512;DHT22;5304;48.604;2.096;2022-12-07T11:49:10;8.10;99.90
10512;DHT22;5304;48.604;2.096;2022-12-07T11:51:59;8.20;99.90
10512;DHT22;5304;48.604;2.096;2022-12-07T11:54:50;8.20;99.90
10512;DHT22;5304;48.604;2.096;2022-12-07T11:57:42;8.30;99.90
10512;DHT22;5304;48.604;2.096;2022-12-07T12:00:29;8.40;99.90
10512;DHT22;5304;48.604;2.096;2022-12-07T12:03:28;8.50;99.90
10512;DHT22;5304;48.604;2.096;2022-12-07T12:06:14;8.40;99.90
10512;DHT22;5304;48.604;2.096;2022-12-07T12:09:13;8.50;99.90
10512;DHT22;5304;48.604;2.096;2022-12-07T12:13:01;8.50;99.90
10512;DHT22;5304;48.604;2.096;2022-12-07T12:18:26;8.10;99.90
10512;DHT22;5304;48.604;2.096;2022-12-07T12:21:22;7.90;99.90
10512;DHT22;5304;48.604;2.096;2022-12-07T12:24:17;7.70;99.90
10512;DHT22;5304;48.604;2.096;2022-12-07T12:27:08;7.60;99.90
10512;DHT22;5304;48.604;2.096;2022-12-07T12:29:56;7.60;99.90
10512;DHT22;5304;48.604;2.096;2022-12-07T12:32:43;7.70;99.90
10512;DHT22;5304;48.604;2.096;2022-12-07T12:35:34;7.70;99.90
10512;DHT22;5304;48.604;2.096;2022-12-07T12:38:30;7.90;99.90
10512;DHT22;5304;48.604;2.096;2022-12-07T12:47:39;7.80;99.90
10512;DHT22;5304;48.604;2.096;2022-12-07T12:50:30;7.70;99.90
10512;DHT22;5304;48.604;2.096;2022-12-07T12:53:24;7.60;99.90
10512;DHT22;5304;48.604;2.096;2022-12-07T12:59:25;7.30;99.90
10512;DHT22;5304;48.604;2.096;2022-12-07T13:02:38;7.20;99.90
10512;DHT22;5304;48.604;2.096;2022-12-07T13:05:31;7.10;99.90
10512;DHT22;5304;48.604;2.096;2022-12-07T13:08:22;7.00;99.90
10512;DHT22;5304;48.604;2.096;2022-12-07T13:11:25;6.90;99.90
10512;DHT22;5304;48.604;2.096;2022-12-07T13:20:40;7.00;99.90
10512;DHT22;5304;48.604;2.096;2022-12-07T13:32:04;7.00;99.90
10512;DHT22;5304;48.604;2.096;2022-12-07T13:34:49;7.00;99.90
10512;DHT22;5304;48.604;2.096;2022-12-07T13:37:33;7.00;99.90
10512;DHT22;5304;48.604;2.096;2022-12-07T13:40:20;6.90;99.90
10512;DHT22;5304;48.604;2.096;2022-12-07T13:43:13;6.90;99.90
10512;DHT22;5304;48.604;2.096;2022-12-07T13:45:59;6.90;99.90
10512;DHT22;5304;48.604;2.096;2022-12-07T13:48:48;7.00;99.90
10512;DHT22;5304;48.604;2.096;2022-12-07T13:51:36;7.00;99.90
10512;DHT22;5304;48.604;2.096;2022-12-07T13:54:21;7.00;99.90
10512;DHT22;5304;48.604;2.096;2022-12-07T13:57:06;7.00;99.90
10512;DHT22;5304;48.604;2.096;2022-12-07T13:59:51;7.10;99.90
10512;DHT22;5304;48.604;2.096;2022-12-07T14:02:36;7.00;99.90
10512;DHT22;5304;48.604;2.096;2022-12-07T14:10:56;7.30;99.90
10512;DHT22;5304;48.604;2.096;2022-12-07T14:13:56;7.40;99.90
10512;DHT22;5304;48.604;2.096;2022-12-07T14:16:42;7.40;99.90
10512;DHT22;5304;48.604;2.096;2022-12-07T14:19:49;7.40;99.90
10512;DHT22;5304;48.604;2.096;2022-12-07T14:22:37;7.40;99.90
10512;DHT22;5304;48.604;2.096;2022-12-07T14:25:26;7.30;99.90
10512;DHT22;5304;48.604;2.096;2022-12-07T14:28:32;7.20;99.90
10512;DHT22;5304;48.604;2.096;2022-12-07T14:31:18;7.20;99.90
10512;DHT22;5304;48.604;2.096;2022-12-07T14:34:09;7.00;99.90
10512;DHT22;5304;48.604;2.096;2022-12-07T14:36:55;6.80;99.90
10512;DHT22;5304;48.604;2.096;2022-12-07T14:39:39;6.70;99.90
10512;DHT22;5304;48.604;2.096;2022-12-07T14:42:27;6.50;99.90
10512;DHT22;5304;48.604;2.096;2022-12-07T14:45:15;6.30;99.90
10512;DHT22;5304;48.604;2.096;2022-12-07T14:48:01;6.10;99.90
10512;DHT22;5304;48.604;2.096;2022-12-07T14:50:49;6.00;99.90
10512;DHT22;5304;48.604;2.096;2022-12-07T14:53:39;5.90;99.90
10512;DHT22;5304;48.604;2.096;2022-12-07T14:56:24;5.90;99.90
10512;DHT22;5304;48.604;2.096;2022-12-07T14:59:10;5.90;99.90
10512;DHT22;5304;48.604;2.096;2022-12-07T15:01:55;5.80;99.90
10512;DHT22;5304;48.604;2.096;2022-12-07T15:04:39;5.70;99.90
10512;DHT22;5304;48.604;2.096;2022-12-07T15:07:24;5.60;99.90
10512;DHT22;5304;48.604;2.096;2022-12-07T15:10:18;5.70;99.90
10512;DHT22;5304;48.604;2.096;2022-12-07T15:13:03;5.60;99.90
10512;DHT22;5304;48.604;2.096;2022-12-07T15:16:10;5.60;99.90
10512;DHT22;5304;48.604;2.096;2022-12-07T15:18:55;5.50;99.90
10512;DHT22;5304;48.604;2.096;2022-12-07T15:21:40;5.30;99.90
10512;DHT22;5304;48.604;2.096;2022-12-07T15:24:26;5.20;99.90
10512;DHT22;5304;48.604;2.096;2022-12-07T15:27:10;5.10;99.90
10512;DHT22;5304;48.604;2.096;2022-12-07T15:29:55;5.00;99.90
10512;DHT22;5304;48.604;2.096;2022-12-07T15:32:39;4.90;99.90
10512;DHT22;5304;48.604;2.096;2022-12-07T15:35:24;4.80;99.90
10512;DHT22;5304;48.604;2.096;2022-12-07T15:38:09;4.70;99.90
10512;DHT22;5304;48.604;2.096;2022-12-07T15:40:53;4.60;99.90
10512;DHT22;5304;48.604;2.096;2022-12-07T15:43:37;4.50;99.90
10512;DHT22;5304;48.604;2.096;2022-12-07T15:46:41;4.40;99.90
10512;DHT22;5304;48.604;2.096;2022-12-07T15:49:26;4.30;99.90
10512;DHT22;5304;48.604;2.096;2022-12-07T15:52:15;4.20;99.90
10512;DHT22;5304;48.604;2.096;2022-12-07T15:55:00;4.10;99.90
10512;DHT22;5304;48.604;2.096;2022-12-07T15:57:47;4.00;99.90
10512;DHT22;5304;48.604;2.096;2022-12-07T16:00:32;3.90;99.90
10512;DHT22;5304;48.604;2.096;2022-12-07T16:03:17;3.80;99.90
10512;DHT22;5304;48.604;2.096;2022-12-07T16:06:01;3.70;99.90
10512;DHT22;5304;48.604;2.096;2022-12-07T16:08:46;3.70;99.90
10512;DHT22;5304;48.604;2.096;2022-12-07T16:11:31;3.60;99.90
10512;DHT22;5304;48.604;2.096;2022-12-07T16:14:16;3.50;99.90
10512;DHT22;5304;48.604;2.096;2022-12-07T16:17:00;3.50;99.90
10512;DHT22;5304;48.604;2.096;2022-12-07T16:19:44;3.40;99.90
10512;DHT22;5304;48.604;2.096;2022-12-07T16:22:29;3.30;99.90
10512;DHT22;5304;48.604;2.096;2022-12-07T16:25:13;3.20;99.90
10512;DHT22;5304;48.604;2.096;2022-12-07T16:27:58;3.10;99.90
10512;DHT22;5304;48.604;2.096;2022-12-07T16:30:42;3.00;99.90
10512;DHT22;5304;48.604;2.096;2022-12-07T16:33:27;2.90;99.90
10512;DHT22;5304;48.604;2.096;2022-12-07T16:36:13;2.90;99.90
10512;DHT22;5304;48.604;2.096;2022-12-07T16:39:00;2.80;99.90
10512;DHT22;5304;48.604;2.096;2022-12-07T16:41:44;2.80;99.90
10512;DHT22;5304;48.604;2.096;2022-12-07T16:44:29;2.70;99.90
10512;DHT22;5304;48.604;2.096;2022-12-07T16:47:15;2.60;99.90
10512;DHT22;5304;48.604;2.096;2022-12-07T16:50:00;2.60;99.90
10512;DHT22;5304;48.604;2.096;2022-12-07T16:52:44;2.60;99.90
10512;DHT22;5304;48.604;2.096;2022-12-07T16:55:28;2.60;99.90
10512;DHT22;5304;48.604;2.096;2022-12-07T16:58:14;2.50;99.90
10512;DHT22;5304;48.604;2.096;2022-12-07T17:00:59;2.50;99.90
10512;DHT22;5304;48.604;2.096;2022-12-07T17:03:44;2.50;99.90
10512;DHT22;5304;48.604;2.096;2022-12-07T17:06:29;2.50;99.90
10512;DHT22;5304;48.604;2.096;2022-12-07T17:09:15;2.50;99.90
10512;DHT22;5304;48.604;2.096;2022-12-07T17:12:00;2.60;99.90
10512;DHT22;5304;48.604;2.096;2022-12-07T17:14:45;2.60;99.90
10512;DHT22;5304;48.604;2.096;2022-12-07T17:17:53;2.70;99.90
10512;DHT22;5304;48.604;2.096;2022-12-07T17:20:38;2.80;99.90
10512;DHT22;5304;48.604;2.096;2022-12-07T17:23:23;2.80;99.90
10512;DHT22;5304;48.604;2.096;2022-12-07T17:26:14;2.90;99.90
10512;DHT22;5304;48.604;2.096;2022-12-07T17:28:59;3.00;99.90
10512;DHT22;5304;48.604;2.096;2022-12-07T17:31:45;3.20;99.90
10512;DHT22;5304;48.604;2.096;2022-12-07T17:34:30;3.30;99.90
10512;DHT22;5304;48.604;2.096;2022-12-07T17:37:14;3.50;99.90
10512;DHT22;5304;48.604;2.096;2022-12-07T17:39:59;3.40;99.90
10512;DHT22;5304;48.604;2.096;2022-12-07T17:42:43;3.40;99.90
10512;DHT22;5304;48.604;2.096;2022-12-07T17:45:31;3.30;99.90
10512;DHT22;5304;48.604;2.096;2022-12-07T17:48:16;3.30;99.90
10512;DHT22;5304;48.604;2.096;2022-12-07T17:51:01;3.20;99.90
10512;DHT22;5304;48.604;2.096;2022-12-07T17:54:04;3.20;99.90
10512;DHT22;5304;48.604;2.096;2022-12-07T17:56:48;3.40;99.90
10512;DHT22;5304;48.604;2.096;2022-12-07T17:59:33;3.40;99.90
10512;DHT22;5304;48.604;2.096;2022-12-07T18:02:18;3.40;99.90
10512;DHT22;5304;48.604;2.096;2022-12-07T18:05:02;3.40;99.90
10512;DHT22;5304;48.604;2.096;2022-12-07T18:07:46;3.40;99.90
10512;DHT22;5304;48.604;2.096;2022-12-07T18:10:31;3.40;99.90
10512;DHT22;5304;48.604;2.096;2022-12-07T18:13:15;3.40;99.90
10512;DHT22;5304;48.604;2.096;2022-12-07T18:16:21;3.50;99.90
10512;DHT22;5304;48.604;2.096;2022-12-07T18:19:06;3.40;99.90
10512;DHT22;5304;48.604;2.096;2022-12-07T18:21:52;3.40;99.90
10512;DHT22;5304;48.604;2.096;2022-12-07T18:24:38;3.50;99.90
10512;DHT22;5304;48.604;2.096;2022-12-07T18:27:22;3.50;99.90
10512;DHT22;5304;48.604;2.096;2022-12-07T18:30:07;3.40;99.90
10512;DHT22;5304;48.604;2.096;2022-12-07T18:32:52;3.50;99.90
10512;DHT22;5304;48.604;2.096;2022-12-07T18:35:36;3.40;99.90
10512;DHT22;5304;48.604;2.096;2022-12-07T18:38:21;3.40;99.90
10512;DHT22;5304;48.604;2.096;2022-12-07T18:41:11;3.50;99.90
10512;DHT22;5304;48.604;2.096;2022-12-07T18:43:55;3.50;99.90
10512;DHT22;5304;48.604;2.096;2022-12-07T18:46:40;3.50;99.90
10512;DHT22;5304;48.604;2.096;2022-12-07T18:49:25;3.60;99.90
10512;DHT22;5304;48.604;2.096;2022-12-07T18:52:10;3.70;99.90
10512;DHT22;5304;48.604;2.096;2022-12-07T18:54:54;3.80;99.90
10512;DHT22;5304;48.604;2.096;2022-12-07T18:57:39;3.70;99.90
10512;DHT22;5304;48.604;2.096;2022-12-07T19:00:26;3.70;99.90
10512;DHT22;5304;48.604;2.096;2022-12-07T19:03:11;3.70;99.90
10512;DHT22;5304;48.604;2.096;2022-12-07T19:05:56;3.60;99.90
10512;DHT22;5304;48.604;2.096;2022-12-07T19:08:41;3.60;99.90
10512;DHT22;5304;48.604;2.096;2022-12-07T19:11:27;3.60;99.90
10512;DHT22;5304;48.604;2.096;2022-12-07T19:14:33;3.60;99.90
10512;DHT22;5304;48.604;2.096;2022-12-07T19:17:19;3.60;99.90
10512;DHT22;5304;48.604;2.096;2022-12-07T19:20:07;3.60;99.90
10512;DHT22;5304;48.604;2.096;2022-12-07T19:22:52;3.50;99.90
10512;DHT22;5304;48.604;2.096;2022-12-07T19:25:39;3.50;99.90
10512;DHT22;5304;48.604;2.096;2022-12-07T19:28:24;3.60;99.90
10512;DHT22;5304;48.604;2.096;2022-12-07T19:31:09;3.60;99.90
10512;DHT22;5304;48.604;2.096;2022-12-07T19:33:57;3.70;99.90
10512;DHT22;5304;48.604;2.096;2022-12-07T19:36:42;3.70;99.90
10512;DHT22;5304;48.604;2.096;2022-12-07T19:39:26;3.70;99.90
10512;DHT22;5304;48.604;2.096;2022-12-07T19:42:13;3.70;99.90
10512;DHT22;5304;48.604;2.096;2022-12-07T19:44:58;3.70;99.90
10512;DHT22;5304;48.604;2.096;2022-12-07T19:47:43;3.70;99.90
10512;DHT22;5304;48.604;2.096;2022-12-07T19:50:28;3.70;99.90
10512;DHT22;5304;48.604;2.096;2022-12-07T19:53:12;3.70;99.90
10512;DHT22;5304;48.604;2.096;2022-12-07T19:55:57;3.70;99.90